Aviation Digital Data Service (ADDS)

Output produced by METARs form (1830 UTC 20 August 2014)
found at http://aviationweather.gov/adds/metars/
 
KBHB 201720Z 2018/2118 21005KT P6SM FEW250 
     FM210400 27004KT P6SM FEW250 
     FM211700 13007KT P6SM SCT250 AMD LTD TO CLD VIS AND WIND